createdAt,value
2022-12-14T00:01:19.379Z,19.00
2022-12-14T00:10:24.912Z,18.90
2022-12-14T00:16:30.604Z,18.90
2022-12-14T00:25:36.483Z,18.80
2022-12-14T00:40:51.070Z,18.80
2022-12-14T00:56:06.001Z,18.90
2022-12-14T01:11:16.450Z,18.70
2022-12-14T01:14:19.421Z,18.80
2022-12-14T01:26:28.543Z,18.80
2022-12-14T01:41:40.091Z,18.70
2022-12-14T01:44:53.597Z,19.10
2022-12-14T01:48:01.269Z,18.90
2022-12-14T01:54:08.090Z,18.80
2022-12-14T01:57:11.419Z,18.90
2022-12-14T02:03:19.856Z,18.80
2022-12-14T02:06:26.278Z,18.70
2022-12-14T02:09:31.488Z,18.70
2022-12-14T02:12:38.299Z,18.90
2022-12-14T02:22:03.421Z,18.90
2022-12-14T02:25:28.891Z,18.90
2022-12-14T02:28:54.560Z,18.90
2022-12-14T02:32:10.348Z,18.90
2022-12-14T02:35:18.950Z,18.90
2022-12-14T02:38:30.802Z,18.90
2022-12-14T02:41:39.709Z,18.80
2022-12-14T02:44:51.111Z,18.70
2022-12-14T02:47:59.549Z,18.80
2022-12-14T02:51:07.627Z,18.80
2022-12-14T02:54:13.889Z,18.80
2022-12-14T02:57:21.601Z,18.90
2022-12-14T03:00:24.008Z,18.90
2022-12-14T03:03:26.404Z,18.90
2022-12-14T03:09:31.790Z,18.80
2022-12-14T03:15:37.889Z,18.80
2022-12-14T03:18:43.567Z,18.90
2022-12-14T03:21:50.186Z,18.80
2022-12-14T03:24:57.619Z,18.70
2022-12-14T03:28:04.472Z,18.80
2022-12-14T03:31:11.616Z,18.90
2022-12-14T03:34:16.137Z,18.80
2022-12-14T03:37:23.956Z,18.80
2022-12-14T03:40:30.439Z,18.60
2022-12-14T03:43:36.262Z,18.70
2022-12-14T03:46:43.087Z,18.80
2022-12-14T03:49:57.116Z,18.80
2022-12-14T03:53:02.523Z,18.80
2022-12-14T03:56:09.012Z,19.00
2022-12-14T03:59:15.202Z,18.80
2022-12-14T04:02:25.292Z,18.80
2022-12-14T04:05:34.370Z,18.80
2022-12-14T04:08:41.636Z,18.80
2022-12-14T04:12:03.336Z,18.90
2022-12-14T04:15:25.733Z,18.90
2022-12-14T04:18:45.944Z,18.70
2022-12-14T04:21:53.945Z,18.70
2022-12-14T04:25:14.688Z,18.80
2022-12-14T04:28:35.144Z,18.80
2022-12-14T04:31:41.501Z,18.80
2022-12-14T04:34:46.190Z,18.80
2022-12-14T04:37:50.753Z,18.70
2022-12-14T04:40:55.250Z,18.80
2022-12-14T04:43:59.773Z,18.80
2022-12-14T04:47:03.794Z,18.90
2022-12-14T04:50:11.830Z,18.70
2022-12-14T04:53:17.876Z,18.80
2022-12-14T04:56:24.282Z,18.90
2022-12-14T04:59:26.600Z,19.00
2022-12-14T05:02:42.385Z,18.70
2022-12-14T05:05:58.543Z,18.80
2022-12-14T05:09:10.642Z,18.90
2022-12-14T05:12:17.629Z,18.70
2022-12-14T05:15:24.073Z,18.80
2022-12-14T05:24:44.776Z,18.80
2022-12-14T05:39:55.709Z,18.70
2022-12-14T05:43:04.575Z,18.80
2022-12-14T05:55:12.133Z,18.80
2022-12-14T06:10:30.317Z,18.70
2022-12-14T06:25:52.734Z,18.80
2022-12-14T06:28:55.321Z,18.70
2022-12-14T06:41:07.332Z,18.60
2022-12-14T06:44:12.039Z,18.80
2022-12-14T06:56:21.274Z,18.80
2022-12-14T07:08:31.089Z,18.90
2022-12-14T07:11:33.348Z,18.80
2022-12-14T07:23:42.031Z,19.10
2022-12-14T07:26:44.138Z,19.00
2022-12-14T07:38:53.175Z,19.40
2022-12-14T07:41:55.460Z,19.50
2022-12-14T07:51:06.973Z,19.60
2022-12-14T07:57:11.294Z,19.50
2022-12-14T08:00:13.565Z,19.70
2022-12-14T08:06:18.722Z,19.80
2022-12-14T08:12:22.957Z,19.70
2022-12-14T08:21:28.744Z,19.90
2022-12-14T08:27:32.618Z,19.90
2022-12-14T08:30:38.323Z,19.80
2022-12-14T08:33:42.211Z,19.90
2022-12-14T08:42:51.851Z,20.00
2022-12-14T08:45:54.310Z,20.50
2022-12-14T08:58:02.617Z,20.20
2022-12-14T09:01:06.078Z,20.50
2022-12-14T09:04:08.681Z,20.50
2022-12-14T09:10:12.830Z,20.40
2022-12-14T09:13:14.996Z,20.50
2022-12-14T09:16:19.769Z,20.40
2022-12-14T09:28:27.652Z,20.30
2022-12-14T09:37:34.189Z,20.40
2022-12-14T09:43:41.350Z,20.70
2022-12-14T09:46:51.858Z,20.50
2022-12-14T09:49:56.677Z,20.80
2022-12-14T09:53:01.181Z,20.40
2022-12-14T09:59:11.162Z,20.50
2022-12-14T10:02:33.070Z,20.50
2022-12-14T10:05:51.156Z,20.40
2022-12-14T10:09:02.154Z,19.50
2022-12-14T10:12:13.718Z,20.50
2022-12-14T10:15:20.770Z,20.80
2022-12-14T10:22:02.533Z,20.70
2022-12-14T10:25:07.613Z,20.30
2022-12-14T10:28:20.289Z,20.60
2022-12-14T10:31:29.796Z,20.60
2022-12-14T10:34:33.938Z,21.10
2022-12-14T10:37:40.609Z,20.60
2022-12-14T10:40:53.655Z,20.40
2022-12-14T10:44:02.199Z,20.60
2022-12-14T10:47:12.539Z,20.80
2022-12-14T10:50:20.139Z,20.70
2022-12-14T10:53:33.486Z,20.70
2022-12-14T10:56:42.144Z,20.70
2022-12-14T11:03:15.013Z,20.90
2022-12-14T11:06:18.550Z,20.80
2022-12-14T11:09:21.144Z,20.90
2022-12-14T11:12:26.480Z,20.20
2022-12-14T11:18:58.526Z,20.90
2022-12-14T11:22:14.631Z,20.80
2022-12-14T11:25:34.056Z,20.90
2022-12-14T11:28:39.087Z,21.10
2022-12-14T11:31:45.358Z,21.00
2022-12-14T11:34:57.206Z,20.90
2022-12-14T11:37:59.683Z,20.50
2022-12-14T11:41:10.683Z,21.00
2022-12-14T11:44:21.265Z,21.20
2022-12-14T11:50:34.403Z,21.00
2022-12-14T11:59:44.777Z,21.00
2022-12-14T12:02:49.840Z,21.00
2022-12-14T12:05:53.407Z,21.00
2022-12-14T12:08:57.573Z,21.00
2022-12-14T12:18:07.759Z,21.00
2022-12-14T12:21:15.052Z,20.90
2022-12-14T12:24:21.841Z,21.10
2022-12-14T12:30:52.428Z,20.90
2022-12-14T12:34:00.042Z,20.90
2022-12-14T12:40:32.385Z,20.90
2022-12-14T12:43:37.457Z,20.70
2022-12-14T12:47:22.367Z,20.90
2022-12-14T12:50:15.555Z,20.90
2022-12-14T12:53:23.800Z,20.80
2022-12-14T12:56:32.938Z,20.70
2022-12-14T12:59:37.863Z,20.70
2022-12-14T13:02:45.798Z,20.70
2022-12-14T13:05:54.916Z,20.70
2022-12-14T13:09:14.386Z,20.70
2022-12-14T13:12:23.467Z,20.60
2022-12-14T13:15:29.042Z,20.80
2022-12-14T13:18:57.704Z,20.80
2022-12-14T13:25:15.206Z,20.70
2022-12-14T13:28:50.323Z,20.60
2022-12-14T13:31:58.991Z,20.60
2022-12-14T13:35:13.835Z,20.50
2022-12-14T13:38:36.759Z,20.70
2022-12-14T13:41:45.423Z,20.60
2022-12-14T13:44:56.370Z,20.70
2022-12-14T13:51:04.039Z,20.60
2022-12-14T13:54:17.705Z,20.50
2022-12-14T13:57:23.923Z,20.80
2022-12-14T14:00:52.059Z,20.60
2022-12-14T14:03:55.866Z,20.50
2022-12-14T14:07:21.625Z,20.60
2022-12-14T14:14:05.572Z,20.60
2022-12-14T14:17:14.793Z,20.70
2022-12-14T14:20:36.295Z,20.60
2022-12-14T14:26:41.127Z,20.70
2022-12-14T14:33:47.573Z,20.70
2022-12-14T14:36:50.741Z,21.90
2022-12-14T14:40:10.210Z,20.80
2022-12-14T14:43:27.935Z,20.70
2022-12-14T14:46:35.253Z,20.50
2022-12-14T14:49:41.114Z,20.80
2022-12-14T14:52:59.824Z,20.70
2022-12-14T14:56:05.952Z,20.80
2022-12-14T14:59:28.322Z,20.60
2022-12-14T15:02:32.642Z,20.70
2022-12-14T15:05:44.118Z,20.70
2022-12-14T15:08:47.292Z,20.60
2022-12-14T15:11:52.470Z,20.70
2022-12-14T15:15:00.163Z,20.70
2022-12-14T15:18:22.740Z,20.60
2022-12-14T15:24:40.663Z,20.60
2022-12-14T15:30:47.040Z,20.70
2022-12-14T15:36:53.084Z,20.60
2022-12-14T15:40:05.158Z,20.60
2022-12-14T15:43:17.689Z,20.70
2022-12-14T15:46:24.939Z,20.50
2022-12-14T15:52:30.241Z,20.60
2022-12-14T15:55:35.890Z,20.50
2022-12-14T15:58:40.060Z,20.50
2022-12-14T16:01:47.345Z,20.60
2022-12-14T16:04:55.133Z,20.70
2022-12-14T16:07:57.898Z,20.60
2022-12-14T16:11:03.234Z,20.60
2022-12-14T16:14:19.683Z,20.70
2022-12-14T16:17:24.847Z,20.60
2022-12-14T16:20:28.816Z,20.50
2022-12-14T16:23:33.611Z,20.60
2022-12-14T16:26:37.791Z,20.60
2022-12-14T16:29:45.012Z,20.70
2022-12-14T16:32:53.497Z,20.80
2022-12-14T16:36:01.731Z,20.70
2022-12-14T16:39:06.604Z,20.80
2022-12-14T16:42:18.617Z,21.00
2022-12-14T16:46:05.219Z,20.90
2022-12-14T16:49:19.937Z,21.00
2022-12-14T16:52:25.550Z,20.80
2022-12-14T16:55:27.709Z,20.90
2022-12-14T17:01:41.851Z,20.80
2022-12-14T17:10:47.534Z,20.70
2022-12-14T17:16:59.039Z,20.80
2022-12-14T17:20:01.484Z,20.80
2022-12-14T17:23:03.962Z,20.50
2022-12-14T17:26:05.980Z,20.70
2022-12-14T17:29:17.503Z,20.50
2022-12-14T17:32:19.259Z,20.20
2022-12-14T17:35:23.637Z,20.50
2022-12-14T17:41:27.488Z,20.40
2022-12-14T17:50:33.221Z,20.20
2022-12-14T17:53:35.877Z,20.10
2022-12-14T17:56:37.927Z,20.10
2022-12-14T18:05:49.630Z,20.10
2022-12-14T18:12:21.752Z,20.00
2022-12-14T18:15:18.864Z,19.90
2022-12-14T18:18:22.256Z,19.90
2022-12-14T18:21:25.520Z,19.80
2022-12-14T18:27:29.962Z,19.70
2022-12-14T18:30:40.543Z,19.90
2022-12-14T18:42:51.858Z,19.60
2022-12-14T18:45:54.896Z,19.70
2022-12-14T18:58:02.705Z,19.60
2022-12-14T19:13:25.382Z,19.50
2022-12-14T19:28:46.718Z,19.40
2022-12-14T19:41:02.105Z,19.40
2022-12-14T19:44:04.335Z,19.30
2022-12-14T19:56:15.997Z,19.20
2022-12-14T19:59:18.031Z,19.40
2022-12-14T20:08:24.804Z,19.30
2022-12-14T20:11:26.832Z,19.30
2022-12-14T20:14:28.823Z,19.20
2022-12-14T20:23:35.399Z,19.20
2022-12-14T20:26:37.576Z,19.10
2022-12-14T20:29:39.833Z,19.20
2022-12-14T20:41:51.502Z,19.10
2022-12-14T20:44:53.632Z,19.10
2022-12-14T20:51:00.201Z,19.20
2022-12-14T21:00:07.020Z,19.10
2022-12-14T21:15:24.013Z,19.10
2022-12-14T21:30:53.097Z,19.10
2022-12-14T21:52:13.595Z,19.10
2022-12-14T22:01:19.424Z,19.00
2022-12-14T22:04:22.057Z,19.20
2022-12-14T22:07:25.867Z,19.10
2022-12-14T22:16:33.749Z,19.00
2022-12-14T22:31:43.325Z,19.10
2022-12-14T22:43:54.417Z,19.00
2022-12-14T22:46:56.914Z,18.90
2022-12-14T22:56:06.651Z,19.00
2022-12-14T22:59:12.203Z,19.10
2022-12-14T23:02:14.520Z,19.10
2022-12-14T23:18:08.754Z,19.00
2022-12-14T23:34:26.303Z,19.00
2022-12-14T23:50:39.570Z,19.00
